Kezdőlap
METAR-TAF:

METAR-TAF

Repülőterek :

DeKalb Taylor Municipal Airport

DeKalb, Illinois, Amerikai Egyesült Államok

földrajzi szélesség: 41-55-55N, földrajzi hosszúság: 088-42-30W, magasság: 279 m

Jelenlegi meteorológiai megfigyelések

A jelentés 15 perccel ezelõtt készült, 11:15 UTC
Északnyugati szél 4 kt
Hőmérséklet 16°C
Páratartalom 82%
Légköri nyomás 1021 hPa
Látótávolság: 16.1 km
Derült ég

METAR: KDKB 211115Z AUTO 31004KT 10SM CLR 16/13 A3014 RMK AO2 T01600134

Idő: 06:30 (11:30 UTC)


TAF: hiányzik

Meteorológiai megfigyelések és előrejelzések több, mint 4000 repülőtéren (METAR és TAF jelentéseket).

A térképen piros és sárga pontok jelzik az elérhető meteorológiai állomásokat.

Mozgassa az egeret a pont fölött, hogy megjelenjen az állomás neve.

Azután kattintson az időjárási megfigyelések és előrejelzések megtekintéséhez.

A térkép megváltoztatása: kattintson a fekete keresztel jelölt zöld gombra ráközelítéshez, a vonallal jelölt zöld gombra távolításhoz, vagy a zöld nyilakra a szomszédos térképek eléréséhez.


METAR-TAF: